createdAt,value
2022-10-16T00:01:29.347Z,96334.06
2022-10-16T00:03:59.890Z,96338.66
2022-10-16T00:06:28.237Z,96330.31
2022-10-16T00:08:56.942Z,96329.06
2022-10-16T00:11:27.227Z,96336.78
2022-10-16T00:13:58.565Z,96340.13
2022-10-16T00:16:27.624Z,96344.72
2022-10-16T00:18:55.916Z,96349.66
2022-10-16T00:21:27.694Z,96349.88
2022-10-16T00:23:57.892Z,96347.44
2022-10-16T00:26:35.170Z,96346.50
2022-10-16T00:29:03.588Z,96353.88
2022-10-16T00:31:32.277Z,96343.22
2022-10-16T00:34:01.413Z,96350.91
2022-10-16T00:36:31.655Z,96351.00
2022-10-16T00:41:35.092Z,96336.13
2022-10-16T00:44:05.414Z,96333.78
2022-10-16T00:46:39.402Z,96338.66
2022-10-16T00:49:10.472Z,96330.81
2022-10-16T00:51:41.706Z,96341.31
2022-10-16T00:54:14.419Z,96342.81
2022-10-16T00:56:42.999Z,96349.91
2022-10-16T00:59:15.552Z,96340.19
2022-10-16T01:01:43.791Z,96348.25
2022-10-16T01:04:11.984Z,96349.03
2022-10-16T01:06:47.187Z,96345.19
2022-10-16T01:09:18.815Z,96357.06
2022-10-16T01:11:51.955Z,96357.88
2022-10-16T01:14:24.636Z,96350.91
2022-10-16T01:16:57.579Z,96359.81
2022-10-16T01:19:38.961Z,96353.78
2022-10-16T01:22:10.227Z,96354.81
2022-10-16T01:24:41.774Z,96370.63
2022-10-16T01:27:13.586Z,96366.63
2022-10-16T01:29:47.341Z,96359.38
2022-10-16T01:32:19.536Z,96361.00
2022-10-16T01:34:53.215Z,96370.72
2022-10-16T01:37:28.366Z,96370.06
2022-10-16T01:39:58.363Z,96367.88
2022-10-16T01:42:31.236Z,96362.50
2022-10-16T01:45:01.005Z,96353.34
2022-10-16T01:47:29.666Z,96368.19
2022-10-16T01:50:00.120Z,96347.50
2022-10-16T01:52:29.376Z,96353.59
2022-10-16T01:54:58.843Z,96360.41
2022-10-16T01:57:29.481Z,96357.28
2022-10-16T01:59:58.617Z,96362.50
2022-10-16T02:02:29.000Z,96356.44
2022-10-16T02:04:59.390Z,96366.75
2022-10-16T02:07:27.528Z,96359.75
2022-10-16T02:09:56.330Z,96353.72
2022-10-16T02:12:29.771Z,96345.19
2022-10-16T02:14:58.656Z,96341.91
2022-10-16T02:17:27.482Z,96344.19
2022-10-16T02:19:57.065Z,96347.88
2022-10-16T02:22:29.808Z,96356.00
2022-10-16T02:25:00.901Z,96361.56
2022-10-16T02:27:36.299Z,96374.09
2022-10-16T02:30:09.738Z,96369.56
2022-10-16T02:32:40.242Z,96364.03
2022-10-16T02:35:08.650Z,96361.38
2022-10-16T02:37:37.433Z,96357.53
2022-10-16T02:40:07.231Z,96376.25
2022-10-16T02:42:37.875Z,96381.19
2022-10-16T02:45:06.490Z,96380.59
2022-10-16T02:47:34.694Z,96391.28
2022-10-16T02:50:03.403Z,96385.75
2022-10-16T02:52:31.683Z,96397.34
2022-10-16T02:54:59.971Z,96394.56
2022-10-16T02:57:28.668Z,96389.53
2022-10-16T02:59:58.424Z,96382.53
2022-10-16T03:02:26.722Z,96373.34
2022-10-16T03:04:54.951Z,96366.38
2022-10-16T03:07:23.437Z,96372.28
2022-10-16T03:09:51.910Z,96372.06
2022-10-16T03:12:20.221Z,96384.50
2022-10-16T03:14:49.402Z,96384.72
2022-10-16T03:17:18.976Z,96380.72
2022-10-16T03:19:47.149Z,96375.94
2022-10-16T03:22:15.394Z,96383.66
2022-10-16T03:24:43.727Z,96372.34
2022-10-16T03:27:11.907Z,96376.25
2022-10-16T03:29:40.159Z,96379.34
2022-10-16T03:32:08.321Z,96383.25
2022-10-16T03:34:37.834Z,96383.25
2022-10-16T03:37:06.055Z,96388.81
2022-10-16T03:39:34.230Z,96384.72
2022-10-16T03:42:02.459Z,96392.94
2022-10-16T03:44:30.746Z,96381.94
2022-10-16T03:46:58.994Z,96381.94
2022-10-16T03:49:27.228Z,96384.69
2022-10-16T03:51:56.732Z,96383.66
2022-10-16T03:54:24.903Z,96395.19
2022-10-16T03:56:53.134Z,96397.47
2022-10-16T03:59:21.394Z,96406.75
2022-10-16T04:01:49.574Z,96404.91
2022-10-16T04:04:17.826Z,96403.44
2022-10-16T04:06:46.265Z,96412.94
2022-10-16T04:09:16.133Z,96416.38
2022-10-16T04:11:44.465Z,96410.13
2022-10-16T04:14:12.656Z,96400.69
2022-10-16T04:16:40.821Z,96405.91
2022-10-16T04:19:09.055Z,96402.63
2022-10-16T04:21:37.241Z,96406.94
2022-10-16T04:24:05.817Z,96405.06
2022-10-16T04:26:35.497Z,96399.13
2022-10-16T04:29:03.824Z,96409.84
2022-10-16T04:31:32.115Z,96409.00
2022-10-16T04:34:00.339Z,96403.88
2022-10-16T04:36:29.380Z,96406.13
2022-10-16T04:38:57.782Z,96400.97
2022-10-16T04:41:26.049Z,96395.63
2022-10-16T04:43:55.631Z,96393.34
2022-10-16T04:46:23.913Z,96389.88
2022-10-16T04:48:52.828Z,96393.44
2022-10-16T04:51:21.021Z,96398.25
2022-10-16T04:53:49.280Z,96400.75
2022-10-16T04:56:18.081Z,96410.03
2022-10-16T04:58:46.273Z,96410.69
2022-10-16T05:01:15.930Z,96411.50
2022-10-16T05:03:44.147Z,96412.72
2022-10-16T05:06:12.310Z,96415.63
2022-10-16T05:08:40.481Z,96416.00
2022-10-16T05:11:08.647Z,96408.19
2022-10-16T05:13:36.866Z,96405.91
2022-10-16T05:16:05.370Z,96403.16
2022-10-16T05:18:34.989Z,96406.34
2022-10-16T05:21:03.349Z,96397.13
2022-10-16T05:23:31.653Z,96391.28
2022-10-16T05:26:00.953Z,96392.34
2022-10-16T05:28:30.161Z,96400.78
2022-10-16T05:30:58.749Z,96399.97
2022-10-16T05:33:27.774Z,96393.56
2022-10-16T05:35:57.361Z,96400.78
2022-10-16T05:38:25.585Z,96408.59
2022-10-16T05:40:54.205Z,96411.09
2022-10-16T05:43:22.433Z,96421.81
2022-10-16T05:45:56.782Z,96424.06
2022-10-16T05:48:25.146Z,96438.19
2022-10-16T05:51:00.542Z,96434.53
2022-10-16T05:53:29.874Z,96428.88
2022-10-16T05:55:58.844Z,96430.22
2022-10-16T05:58:28.342Z,96443.34
2022-10-16T06:00:57.397Z,96439.25
2022-10-16T06:03:25.936Z,96437.22
2022-10-16T06:05:55.101Z,96430.63
2022-10-16T06:08:25.325Z,96426.53
2022-10-16T06:11:02.952Z,96430.84
2022-10-16T06:13:31.145Z,96430.41
2022-10-16T06:16:00.327Z,96445.91
2022-10-16T06:18:28.821Z,96434.16
2022-10-16T06:20:57.756Z,96450.81
2022-10-16T06:23:30.325Z,96454.75
2022-10-16T06:26:06.589Z,96453.13
2022-10-16T06:28:34.975Z,96460.13
2022-10-16T06:31:12.188Z,96460.72
2022-10-16T06:33:53.266Z,96470.81
2022-10-16T06:36:21.859Z,96461.16
2022-10-16T06:38:51.622Z,96470.03
2022-10-16T06:41:21.725Z,96480.94
2022-10-16T06:43:50.175Z,96483.41
2022-10-16T06:46:19.648Z,96482.59
2022-10-16T06:48:48.737Z,96490.00
2022-10-16T06:51:18.256Z,96494.09
2022-10-16T06:54:02.348Z,96483.81
2022-10-16T06:56:34.141Z,96484.63
2022-10-16T06:59:02.190Z,96493.63
2022-10-16T07:01:30.515Z,96496.78
2022-10-16T07:03:58.949Z,96498.66
2022-10-16T07:06:28.346Z,96506.84
2022-10-16T07:08:56.663Z,96505.81
2022-10-16T07:11:26.107Z,96512.78
2022-10-16T07:13:56.486Z,96513.81
2022-10-16T07:16:25.050Z,96513.75
2022-10-16T07:18:58.748Z,96513.19
2022-10-16T07:21:29.061Z,96510.25
2022-10-16T07:24:00.139Z,96519.03
2022-10-16T07:26:28.925Z,96513.38
2022-10-16T07:28:58.931Z,96513.75
2022-10-16T07:31:27.394Z,96513.91
2022-10-16T07:33:56.386Z,96522.16
2022-10-16T07:36:24.738Z,96517.47
2022-10-16T07:38:55.522Z,96526.75
2022-10-16T07:41:27.073Z,96532.94
2022-10-16T07:43:55.870Z,96529.97
2022-10-16T07:46:25.669Z,96537.56
2022-10-16T07:48:54.192Z,96534.25
2022-10-16T07:51:23.934Z,96537.34
2022-10-16T07:53:52.187Z,96542.16
2022-10-16T07:56:20.986Z,96548.84
2022-10-16T07:58:50.737Z,96543.00
2022-10-16T08:01:19.542Z,96545.63
2022-10-16T08:03:50.245Z,96542.44
2022-10-16T08:06:21.885Z,96546.94
2022-10-16T08:08:53.601Z,96555.78
2022-10-16T08:11:21.874Z,96553.78
2022-10-16T08:13:50.132Z,96558.31
2022-10-16T08:16:18.879Z,96560.28
2022-10-16T08:18:47.151Z,96563.22
2022-10-16T08:21:21.407Z,96562.28
2022-10-16T08:23:54.614Z,96563.75
2022-10-16T08:26:25.472Z,96567.88
2022-10-16T08:28:53.961Z,96567.53
2022-10-16T08:31:22.570Z,96566.47
2022-10-16T08:33:50.914Z,96568.56
2022-10-16T08:36:20.579Z,96570.81
2022-10-16T08:38:50.811Z,96570.50
2022-10-16T08:41:49.438Z,96573.63
2022-10-16T08:44:29.543Z,96573.84
2022-10-16T08:47:04.941Z,96576.19
2022-10-16T08:49:33.381Z,96579.75
2022-10-16T08:52:02.991Z,96581.72
2022-10-16T08:54:34.878Z,96587.09
2022-10-16T08:57:10.346Z,96588.56
2022-10-16T08:59:39.109Z,96587.41
2022-10-16T09:02:24.804Z,96583.84
2022-10-16T09:05:02.321Z,96589.44
2022-10-16T09:07:36.137Z,96589.94
2022-10-16T09:10:23.810Z,96589.44
2022-10-16T09:12:57.312Z,96586.00
2022-10-16T09:15:31.626Z,96589.56
2022-10-16T09:18:03.549Z,96583.50
2022-10-16T09:20:36.855Z,96578.44
2022-10-16T09:23:17.329Z,96585.72
2022-10-16T09:25:46.126Z,96579.50
2022-10-16T09:28:14.243Z,96582.09
2022-10-16T09:30:42.852Z,96586.63
2022-10-16T09:33:12.459Z,96582.91
2022-10-16T09:35:42.423Z,96583.09
2022-10-16T09:38:11.111Z,96593.03
2022-10-16T09:40:44.174Z,96584.94
2022-10-16T09:43:22.899Z,96588.13
2022-10-16T09:46:01.030Z,96587.53
2022-10-16T09:48:33.992Z,96595.25
2022-10-16T09:51:03.724Z,96607.41
2022-10-16T09:53:41.294Z,96615.38
2022-10-16T09:56:14.675Z,96620.47
2022-10-16T09:58:52.323Z,96620.53
2022-10-16T10:01:21.647Z,96623.13
2022-10-16T10:03:51.127Z,96614.94
2022-10-16T10:06:25.319Z,96607.56
2022-10-16T10:09:02.552Z,96604.53
2022-10-16T10:11:47.251Z,96603.22
2022-10-16T10:14:24.910Z,96602.66
2022-10-16T10:16:54.188Z,96599.00
2022-10-16T10:19:25.420Z,96600.25
2022-10-16T10:21:56.155Z,96604.13
2022-10-16T10:24:24.386Z,96601.66
2022-10-16T10:26:59.059Z,96600.34
2022-10-16T10:29:33.450Z,96600.56
2022-10-16T10:32:09.446Z,96607.78
2022-10-16T10:34:52.930Z,96603.91
2022-10-16T10:37:33.396Z,96607.22
2022-10-16T10:40:10.441Z,96593.81
2022-10-16T10:42:48.693Z,96600.81
2022-10-16T10:45:25.742Z,96592.66
2022-10-16T10:48:06.211Z,96592.13
2022-10-16T10:50:40.779Z,96589.16
2022-10-16T10:53:14.900Z,96597.31
2022-10-16T10:55:48.175Z,96595.25
2022-10-16T10:58:50.209Z,96595.75
2022-10-16T11:01:20.051Z,96593.50
2022-10-16T11:04:01.253Z,96595.47
2022-10-16T11:06:32.756Z,96598.84
2022-10-16T11:09:04.838Z,96599.78
2022-10-16T11:11:36.789Z,96588.88
2022-10-16T11:14:11.391Z,96591.13
2022-10-16T11:16:42.306Z,96587.69
2022-10-16T11:19:15.048Z,96581.56
2022-10-16T11:21:49.535Z,96584.88
2022-10-16T11:24:22.859Z,96588.13
2022-10-16T11:26:52.577Z,96591.78
2022-10-16T11:29:26.777Z,96584.72
2022-10-16T11:31:57.939Z,96588.25
2022-10-16T11:34:32.923Z,96596.97
2022-10-16T11:37:10.005Z,96598.94
2022-10-16T11:39:40.492Z,96598.56
2022-10-16T11:42:13.514Z,96599.66
2022-10-16T11:44:50.905Z,96604.75
2022-10-16T11:47:54.096Z,96603.53
2022-10-16T11:50:23.035Z,96591.69
2022-10-16T11:52:55.940Z,96596.16
2022-10-16T11:55:28.099Z,96596.41
2022-10-16T12:01:06.084Z,96578.59
2022-10-16T12:03:36.617Z,96577.78
2022-10-16T12:06:15.327Z,96579.97
2022-10-16T12:08:45.168Z,96570.94
2022-10-16T12:11:25.632Z,96579.38
2022-10-16T12:13:54.341Z,96577.78
2022-10-16T12:16:25.611Z,96579.41
2022-10-16T12:19:15.272Z,96581.00
2022-10-16T12:21:43.886Z,96575.88
2022-10-16T12:24:26.522Z,96572.31
2022-10-16T12:26:57.229Z,96573.81
2022-10-16T12:29:36.056Z,96579.16
2022-10-16T12:32:08.250Z,96574.50
2022-10-16T12:34:41.286Z,96571.75
2022-10-16T12:37:12.559Z,96575.19
2022-10-16T12:39:41.360Z,96572.53
2022-10-16T12:42:24.416Z,96576.28
2022-10-16T12:44:53.081Z,96568.38
2022-10-16T12:47:24.434Z,96579.41
2022-10-16T12:49:55.021Z,96567.50
2022-10-16T12:52:28.898Z,96577.19
2022-10-16T12:55:01.746Z,96569.81
2022-10-16T12:57:40.417Z,96565.16
2022-10-16T13:00:16.769Z,96570.78
2022-10-16T13:02:57.639Z,96572.78
2022-10-16T13:08:16.119Z,96580.78
2022-10-16T13:10:56.188Z,96580.78
2022-10-16T13:13:39.081Z,96574.78
2022-10-16T13:16:16.723Z,96572.88
2022-10-16T13:18:54.143Z,96570.78
2022-10-16T13:21:33.618Z,96578.41
2022-10-16T13:24:04.672Z,96584.84
2022-10-16T13:26:39.255Z,96588.63
2022-10-16T13:29:07.687Z,96586.22
2022-10-16T13:31:36.091Z,96585.41
2022-10-16T13:34:06.958Z,96592.13
2022-10-16T13:36:38.191Z,96586.69
2022-10-16T13:39:14.357Z,96588.97
2022-10-16T13:41:42.937Z,96589.72
2022-10-16T13:44:16.010Z,96591.34
2022-10-16T13:46:44.317Z,96588.94
2022-10-16T13:49:16.922Z,96586.88
2022-10-16T13:51:56.359Z,96600.84
2022-10-16T13:54:24.786Z,96598.34
2022-10-16T13:57:03.566Z,96598.22
2022-10-16T13:59:39.753Z,96603.94
2022-10-16T14:02:17.173Z,96600.13
2022-10-16T14:04:47.009Z,96603.53
2022-10-16T14:07:21.365Z,96609.84
2022-10-16T14:09:51.704Z,96603.91
2022-10-16T14:12:21.931Z,96605.75
2022-10-16T14:14:54.437Z,96601.44
2022-10-16T14:17:25.012Z,96611.53
2022-10-16T14:19:59.637Z,96612.00
2022-10-16T14:22:34.269Z,96603.88
2022-10-16T14:25:03.200Z,96611.25
2022-10-16T14:27:35.021Z,96613.16
2022-10-16T14:30:15.233Z,96600.78
2022-10-16T14:32:44.457Z,96598.00
2022-10-16T14:35:26.780Z,96592.94
2022-10-16T14:37:55.714Z,96603.41
2022-10-16T14:40:25.593Z,96596.03
2022-10-16T14:42:54.353Z,96597.53
2022-10-16T14:45:23.733Z,96595.00
2022-10-16T14:47:54.235Z,96599.06
2022-10-16T14:50:22.552Z,96601.81
2022-10-16T14:52:52.650Z,96602.22
2022-10-16T14:55:21.393Z,96605.72
2022-10-16T14:57:49.920Z,96611.81
2022-10-16T15:00:21.577Z,96607.16
2022-10-16T15:02:50.694Z,96607.47
2022-10-16T15:05:21.058Z,96612.94
2022-10-16T15:07:50.064Z,96617.59
2022-10-16T15:10:20.314Z,96613.75
2022-10-16T15:12:48.437Z,96614.03
2022-10-16T15:15:27.815Z,96613.75
2022-10-16T15:17:58.119Z,96618.66
2022-10-16T15:20:26.890Z,96625.16
2022-10-16T15:22:55.262Z,96622.16
2022-10-16T15:25:43.757Z,96625.94
2022-10-16T15:28:13.167Z,96629.09
2022-10-16T15:30:41.489Z,96626.03
2022-10-16T15:33:15.343Z,96627.59
2022-10-16T15:35:43.610Z,96632.75
2022-10-16T15:38:14.683Z,96624.78
2022-10-16T15:40:44.440Z,96626.97
2022-10-16T15:43:12.757Z,96631.06
2022-10-16T15:45:41.053Z,96627.41
2022-10-16T15:48:12.661Z,96634.88
2022-10-16T15:50:41.507Z,96631.28
2022-10-16T15:53:10.693Z,96635.94
2022-10-16T15:55:39.559Z,96633.44
2022-10-16T15:58:09.321Z,96631.19
2022-10-16T16:00:38.534Z,96643.63
2022-10-16T16:03:07.320Z,96640.09
2022-10-16T16:05:36.311Z,96639.97
2022-10-16T16:08:04.601Z,96644.59
2022-10-16T16:10:32.830Z,96642.50
2022-10-16T16:13:01.047Z,96643.78
2022-10-16T16:15:30.692Z,96639.06
2022-10-16T16:17:58.937Z,96648.63
2022-10-16T16:20:27.293Z,96653.63
2022-10-16T16:22:55.535Z,96647.44
2022-10-16T16:25:23.826Z,96650.78
2022-10-16T16:27:52.116Z,96649.75
2022-10-16T16:30:23.750Z,96652.31
2022-10-16T16:32:58.584Z,96654.28
2022-10-16T16:38:20.133Z,96655.19
2022-10-16T16:40:49.936Z,96662.03
2022-10-16T16:43:21.310Z,96663.50
2022-10-16T16:45:49.487Z,96670.84
2022-10-16T16:48:19.045Z,96673.44
2022-10-16T16:50:47.487Z,96679.78
2022-10-16T16:53:15.730Z,96677.19
2022-10-16T16:55:43.911Z,96679.19
2022-10-16T16:58:12.124Z,96686.28
2022-10-16T17:00:56.558Z,96684.50
2022-10-16T17:03:26.511Z,96686.09
2022-10-16T17:05:58.390Z,96688.72
2022-10-16T17:08:26.787Z,96691.84
2022-10-16T17:10:56.032Z,96694.53
2022-10-16T17:13:24.521Z,96702.31
2022-10-16T17:15:53.502Z,96700.84
2022-10-16T17:18:23.186Z,96711.97
2022-10-16T17:20:52.737Z,96709.75
2022-10-16T17:23:21.637Z,96712.44
2022-10-16T17:25:49.891Z,96710.91
2022-10-16T17:28:18.163Z,96711.84
2022-10-16T17:30:46.388Z,96714.91
2022-10-16T17:33:15.088Z,96715.09
2022-10-16T17:35:45.936Z,96714.28
2022-10-16T17:38:16.832Z,96715.81
2022-10-16T17:40:45.038Z,96724.97
2022-10-16T17:43:13.243Z,96733.75
2022-10-16T17:45:41.449Z,96732.69
2022-10-16T17:48:09.664Z,96736.22
2022-10-16T17:50:41.358Z,96735.66
2022-10-16T17:53:09.772Z,96743.84
2022-10-16T17:55:40.783Z,96746.78
2022-10-16T17:58:09.024Z,96743.59
2022-10-16T18:00:37.443Z,96742.06
2022-10-16T18:03:05.895Z,96750.44
2022-10-16T18:05:34.084Z,96752.53
2022-10-16T18:08:02.311Z,96758.84
2022-10-16T18:10:31.006Z,96762.34
2022-10-16T18:13:01.664Z,96765.06
2022-10-16T18:15:30.110Z,96763.50
2022-10-16T18:17:58.377Z,96761.13
2022-10-16T18:20:26.587Z,96774.72
2022-10-16T18:22:55.020Z,96769.41
2022-10-16T18:25:23.193Z,96771.63
2022-10-16T18:27:52.027Z,96778.09
2022-10-16T18:30:24.558Z,96772.19
2022-10-16T18:32:52.879Z,96779.78
2022-10-16T18:35:21.094Z,96782.44
2022-10-16T18:37:49.331Z,96779.59
2022-10-16T18:40:17.534Z,96783.97
2022-10-16T18:42:45.754Z,96786.09
2022-10-16T18:45:13.992Z,96791.78
2022-10-16T18:47:43.626Z,96789.16
2022-10-16T18:50:12.056Z,96784.69
2022-10-16T18:52:40.650Z,96787.63
2022-10-16T18:55:10.629Z,96791.13
2022-10-16T18:57:38.785Z,96786.63
2022-10-16T19:00:08.387Z,96790.13
2022-10-16T19:02:36.672Z,96788.78
2022-10-16T19:05:07.583Z,96794.38
2022-10-16T19:07:37.069Z,96795.72
2022-10-16T19:10:05.958Z,96797.19
2022-10-16T19:12:34.222Z,96804.72
2022-10-16T19:15:02.450Z,96805.38
2022-10-16T19:17:30.866Z,96813.47
2022-10-16T19:19:59.406Z,96812.22
2022-10-16T19:22:40.861Z,96810.16
2022-10-16T19:25:10.072Z,96811.44
2022-10-16T19:27:38.265Z,96818.28
2022-10-16T19:30:07.931Z,96813.97
2022-10-16T19:32:36.286Z,96819.78
2022-10-16T19:35:05.048Z,96828.94
2022-10-16T19:37:34.636Z,96838.47
2022-10-16T19:40:02.897Z,96834.56
2022-10-16T19:42:31.196Z,96838.94
2022-10-16T19:44:59.453Z,96845.75
2022-10-16T19:47:27.736Z,96842.44
2022-10-16T19:49:56.006Z,96845.13
2022-10-16T19:52:24.674Z,96855.72
2022-10-16T19:54:57.572Z,96841.34
2022-10-16T19:57:26.138Z,96845.53
2022-10-16T19:59:54.927Z,96853.34
2022-10-16T20:02:23.191Z,96860.44
2022-10-16T20:04:51.571Z,96864.13
2022-10-16T20:07:21.051Z,96865.16
2022-10-16T20:09:49.393Z,96866.00
2022-10-16T20:12:19.138Z,96859.56
2022-10-16T20:14:47.751Z,96866.19
2022-10-16T20:17:16.047Z,96872.38
2022-10-16T20:19:44.496Z,96868.88
2022-10-16T20:22:12.774Z,96867.22
2022-10-16T20:24:41.096Z,96869.47
2022-10-16T20:27:09.388Z,96880.72
2022-10-16T20:29:39.235Z,96877.88
2022-10-16T20:32:07.474Z,96884.28
2022-10-16T20:34:35.782Z,96880.56
2022-10-16T20:37:04.095Z,96888.34
2022-10-16T20:39:32.577Z,96888.75
2022-10-16T20:42:00.818Z,96881.94
2022-10-16T20:44:29.060Z,96888.09
2022-10-16T20:46:59.113Z,96893.88
2022-10-16T20:49:40.223Z,96883.50
2022-10-16T20:52:09.144Z,96888.66
2022-10-16T20:54:37.455Z,96895.06
2022-10-16T20:57:05.765Z,96897.69
2022-10-16T20:59:34.134Z,96892.09
2022-10-16T21:02:05.556Z,96897.59
2022-10-16T21:04:33.881Z,96898.88
2022-10-16T21:07:02.066Z,96903.16
2022-10-16T21:09:30.398Z,96906.88
2022-10-16T21:11:58.707Z,96901.28
2022-10-16T21:14:27.340Z,96902.13
2022-10-16T21:16:55.627Z,96907.00
2022-10-16T21:19:25.365Z,96906.78
2022-10-16T21:21:53.683Z,96907.72
2022-10-16T21:24:21.954Z,96899.78
2022-10-16T21:26:50.766Z,96901.81
2022-10-16T21:29:19.167Z,96899.78
2022-10-16T21:31:47.708Z,96905.75
2022-10-16T21:34:16.184Z,96906.78
2022-10-16T21:36:45.876Z,96909.91
2022-10-16T21:39:15.668Z,96905.31
2022-10-16T21:41:45.121Z,96905.69
2022-10-16T21:44:13.924Z,96906.00
2022-10-16T21:46:43.548Z,96911.03
2022-10-16T21:49:13.856Z,96910.22
2022-10-16T21:51:44.462Z,96904.06
2022-10-16T21:54:16.008Z,96902.06
2022-10-16T21:56:44.290Z,96899.44
2022-10-16T21:59:13.074Z,96899.47
2022-10-16T22:01:41.844Z,96895.97
2022-10-16T22:04:11.375Z,96897.22
2022-10-16T22:06:39.785Z,96896.53
2022-10-16T22:09:08.168Z,96901.91
2022-10-16T22:11:38.635Z,96899.91
2022-10-16T22:14:07.844Z,96907.63
2022-10-16T22:16:37.142Z,96897.81
2022-10-16T22:19:07.359Z,96898.72
2022-10-16T22:21:38.506Z,96902.94
2022-10-16T22:24:07.195Z,96900.50
2022-10-16T22:26:37.548Z,96901.59
2022-10-16T22:29:06.142Z,96906.28
2022-10-16T22:31:34.769Z,96906.66
2022-10-16T22:34:04.060Z,96912.13
2022-10-16T22:36:32.527Z,96912.09
2022-10-16T22:39:00.963Z,96914.34
2022-10-16T22:41:29.587Z,96914.38
2022-10-16T22:43:59.238Z,96908.50
2022-10-16T22:46:29.252Z,96910.50
2022-10-16T22:48:57.873Z,96910.31
2022-10-16T22:51:26.814Z,96905.09
2022-10-16T22:53:55.172Z,96920.81
2022-10-16T22:56:23.461Z,96911.63
2022-10-16T22:58:51.777Z,96916.88
2022-10-16T23:01:24.471Z,96914.91
2022-10-16T23:03:52.718Z,96919.72
2022-10-16T23:06:21.071Z,96920.19
2022-10-16T23:08:53.101Z,96923.50
2022-10-16T23:11:21.849Z,96929.41
2022-10-16T23:13:50.596Z,96928.47
2022-10-16T23:16:21.939Z,96924.44
2022-10-16T23:18:51.795Z,96927.84
2022-10-16T23:21:22.749Z,96927.22
2022-10-16T23:23:51.534Z,96928.72
2022-10-16T23:26:21.785Z,96922.56
2022-10-16T23:28:50.142Z,96931.19
2022-10-16T23:31:19.561Z,96928.97
2022-10-16T23:33:49.197Z,96928.63
2022-10-16T23:36:19.573Z,96926.56
2022-10-16T23:38:48.791Z,96928.41
2022-10-16T23:41:17.897Z,96929.56
2022-10-16T23:43:46.473Z,96931.22
2022-10-16T23:46:15.675Z,96926.78
2022-10-16T23:48:44.301Z,96937.97
2022-10-16T23:51:14.262Z,96930.69
2022-10-16T23:53:42.569Z,96929.19
2022-10-16T23:56:11.501Z,96935.13
2022-10-16T23:58:40.013Z,96942.00
